sensor_id;sensor_type;location;lat;lon;timestamp;P1;durP1;ratioP1;P2;durP2;ratioP2
23745;SDS011;12053;48.878;9.632;2024-03-22T00:02:06;8.25;;;6.40;;
23745;SDS011;12053;48.878;9.632;2024-03-22T00:04:34;9.70;;;7.30;;
23745;SDS011;12053;48.878;9.632;2024-03-22T00:07:00;11.15;;;7.78;;
23745;SDS011;12053;48.878;9.632;2024-03-22T00:09:28;14.23;;;8.77;;
23745;SDS011;12053;48.878;9.632;2024-03-22T00:11:54;11.18;;;8.15;;
23745;SDS011;12053;48.878;9.632;2024-03-22T00:14:20;11.32;;;8.98;;
23745;SDS011;12053;48.878;9.632;2024-03-22T00:16:46;13.10;;;8.80;;
23745;SDS011;12053;48.878;9.632;2024-03-22T00:19:13;14.13;;;9.40;;
23745;SDS011;12053;48.878;9.632;2024-03-22T00:21:39;12.57;;;8.60;;
23745;SDS011;12053;48.878;9.632;2024-03-22T00:24:06;10.38;;;8.52;;
23745;SDS011;12053;48.878;9.632;2024-03-22T00:26:32;13.52;;;9.77;;
23745;SDS011;12053;48.878;9.632;2024-03-22T00:28:58;15.82;;;10.05;;
23745;SDS011;12053;48.878;9.632;2024-03-22T00:31:25;12.43;;;9.38;;
23745;SDS011;12053;48.878;9.632;2024-03-22T00:33:51;13.55;;;9.45;;
23745;SDS011;12053;48.878;9.632;2024-03-22T00:36:17;13.80;;;9.27;;
23745;SDS011;12053;48.878;9.632;2024-03-22T00:38:43;12.23;;;8.68;;
23745;SDS011;12053;48.878;9.632;2024-03-22T00:41:10;11.40;;;8.25;;
23745;SDS011;12053;48.878;9.632;2024-03-22T00:43:36;9.45;;;7.90;;
23745;SDS011;12053;48.878;9.632;2024-03-22T00:46:02;10.45;;;7.45;;
23745;SDS011;12053;48.878;9.632;2024-03-22T00:48:29;9.82;;;6.93;;
23745;SDS011;12053;48.878;9.632;2024-03-22T00:50:55;10.10;;;7.75;;
23745;SDS011;12053;48.878;9.632;2024-03-22T00:53:21;11.18;;;6.45;;
23745;SDS011;12053;48.878;9.632;2024-03-22T00:55:48;9.88;;;6.88;;
23745;SDS011;12053;48.878;9.632;2024-03-22T00:58:19;9.57;;;6.18;;
23745;SDS011;12053;48.878;9.632;2024-03-22T01:00:46;8.38;;;5.93;;
23745;SDS011;12053;48.878;9.632;2024-03-22T01:03:12;9.57;;;6.65;;
23745;SDS011;12053;48.878;9.632;2024-03-22T01:05:38;9.55;;;7.03;;
23745;SDS011;12053;48.878;9.632;2024-03-22T01:08:05;10.48;;;5.80;;
23745;SDS011;12053;48.878;9.632;2024-03-22T01:10:32;8.75;;;5.22;;
23745;SDS011;12053;48.878;9.632;2024-03-22T01:12:59;7.13;;;4.95;;
23745;SDS011;12053;48.878;9.632;2024-03-22T01:15:26;7.07;;;4.95;;
23745;SDS011;12053;48.878;9.632;2024-03-22T01:17:52;8.60;;;4.97;;
23745;SDS011;12053;48.878;9.632;2024-03-22T01:20:19;5.82;;;4.72;;
23745;SDS011;12053;48.878;9.632;2024-03-22T01:22:45;5.40;;;4.72;;
23745;SDS011;12053;48.878;9.632;2024-03-22T01:25:11;7.68;;;5.20;;
23745;SDS011;12053;48.878;9.632;2024-03-22T01:27:38;6.90;;;5.22;;
23745;SDS011;12053;48.878;9.632;2024-03-22T01:30:04;8.52;;;5.03;;
23745;SDS011;12053;48.878;9.632;2024-03-22T01:32:31;6.30;;;5.28;;
23745;SDS011;12053;48.878;9.632;2024-03-22T01:34:57;8.13;;;5.65;;
23745;SDS011;12053;48.878;9.632;2024-03-22T01:37:23;7.78;;;5.05;;
23745;SDS011;12053;48.878;9.632;2024-03-22T01:39:49;6.47;;;5.32;;
23745;SDS011;12053;48.878;9.632;2024-03-22T01:42:16;8.15;;;5.35;;
23745;SDS011;12053;48.878;9.632;2024-03-22T01:44:42;6.88;;;4.93;;
23745;SDS011;12053;48.878;9.632;2024-03-22T01:47:08;6.95;;;5.53;;
23745;SDS011;12053;48.878;9.632;2024-03-22T01:49:34;9.13;;;5.57;;
23745;SDS011;12053;48.878;9.632;2024-03-22T01:52:01;6.47;;;4.97;;
23745;SDS011;12053;48.878;9.632;2024-03-22T01:54:28;6.40;;;5.25;;
23745;SDS011;12053;48.878;9.632;2024-03-22T01:56:55;8.02;;;5.72;;
23745;SDS011;12053;48.878;9.632;2024-03-22T01:59:21;5.82;;;5.13;;
23745;SDS011;12053;48.878;9.632;2024-03-22T02:01:48;8.23;;;5.72;;
23745;SDS011;12053;48.878;9.632;2024-03-22T02:04:14;10.02;;;5.30;;
23745;SDS011;12053;48.878;9.632;2024-03-22T02:06:41;8.07;;;5.97;;
23745;SDS011;12053;48.878;9.632;2024-03-22T02:09:07;10.43;;;6.28;;
23745;SDS011;12053;48.878;9.632;2024-03-22T02:11:36;9.50;;;5.95;;
23745;SDS011;12053;48.878;9.632;2024-03-22T02:14:03;11.40;;;6.05;;
23745;SDS011;12053;48.878;9.632;2024-03-22T02:16:29;8.85;;;5.55;;
23745;SDS011;12053;48.878;9.632;2024-03-22T02:18:56;8.40;;;6.22;;
23745;SDS011;12053;48.878;9.632;2024-03-22T02:21:22;7.32;;;6.10;;
23745;SDS011;12053;48.878;9.632;2024-03-22T02:23:48;7.35;;;5.85;;
23745;SDS011;12053;48.878;9.632;2024-03-22T02:26:14;7.40;;;4.97;;
23745;SDS011;12053;48.878;9.632;2024-03-22T02:28:41;7.40;;;5.20;;
23745;SDS011;12053;48.878;9.632;2024-03-22T02:31:07;5.97;;;5.07;;
23745;SDS011;12053;48.878;9.632;2024-03-22T02:33:33;7.70;;;5.30;;
23745;SDS011;12053;48.878;9.632;2024-03-22T02:35:59;6.97;;;4.90;;
23745;SDS011;12053;48.878;9.632;2024-03-22T02:38:25;7.70;;;5.53;;
23745;SDS011;12053;48.878;9.632;2024-03-22T02:40:52;7.03;;;5.40;;
23745;SDS011;12053;48.878;9.632;2024-03-22T02:43:18;9.32;;;6.00;;
23745;SDS011;12053;48.878;9.632;2024-03-22T02:45:46;10.65;;;6.60;;
23745;SDS011;12053;48.878;9.632;2024-03-22T02:48:13;8.95;;;6.57;;
23745;SDS011;12053;48.878;9.632;2024-03-22T02:50:39;9.23;;;6.63;;
23745;SDS011;12053;48.878;9.632;2024-03-22T02:53:06;11.35;;;7.28;;
23745;SDS011;12053;48.878;9.632;2024-03-22T02:55:39;11.52;;;7.38;;
23745;SDS011;12053;48.878;9.632;2024-03-22T02:58:08;11.80;;;7.70;;
23745;SDS011;12053;48.878;9.632;2024-03-22T03:00:35;10.95;;;7.68;;
23745;SDS011;12053;48.878;9.632;2024-03-22T03:03:02;13.02;;;7.72;;
23745;SDS011;12053;48.878;9.632;2024-03-22T03:05:29;10.90;;;7.47;;
23745;SDS011;12053;48.878;9.632;2024-03-22T03:07:55;12.35;;;7.72;;
23745;SDS011;12053;48.878;9.632;2024-03-22T03:10:21;11.73;;;8.32;;
23745;SDS011;12053;48.878;9.632;2024-03-22T03:12:47;8.90;;;6.80;;
23745;SDS011;12053;48.878;9.632;2024-03-22T03:15:14;10.50;;;7.63;;
23745;SDS011;12053;48.878;9.632;2024-03-22T03:17:40;10.65;;;8.57;;
23745;SDS011;12053;48.878;9.632;2024-03-22T03:20:06;14.75;;;8.45;;
23745;SDS011;12053;48.878;9.632;2024-03-22T03:22:33;13.15;;;8.70;;
23745;SDS011;12053;48.878;9.632;2024-03-22T03:25:00;12.00;;;8.35;;
23745;SDS011;12053;48.878;9.632;2024-03-22T03:27:26;11.55;;;7.78;;
23745;SDS011;12053;48.878;9.632;2024-03-22T03:29:52;12.48;;;8.05;;
23745;SDS011;12053;48.878;9.632;2024-03-22T03:32:19;10.10;;;7.40;;
23745;SDS011;12053;48.878;9.632;2024-03-22T03:34:45;12.30;;;8.20;;
23745;SDS011;12053;48.878;9.632;2024-03-22T03:37:11;11.93;;;8.50;;
23745;SDS011;12053;48.878;9.632;2024-03-22T03:39:38;15.82;;;9.82;;
23745;SDS011;12053;48.878;9.632;2024-03-22T03:42:04;19.40;;;12.90;;
23745;SDS011;12053;48.878;9.632;2024-03-22T03:44:30;19.85;;;13.30;;
23745;SDS011;12053;48.878;9.632;2024-03-22T03:46:57;19.17;;;12.13;;
23745;SDS011;12053;48.878;9.632;2024-03-22T03:49:23;15.40;;;11.38;;
23745;SDS011;12053;48.878;9.632;2024-03-22T03:51:49;14.00;;;11.00;;
23745;SDS011;12053;48.878;9.632;2024-03-22T03:54:15;16.20;;;10.23;;
23745;SDS011;12053;48.878;9.632;2024-03-22T03:56:42;17.30;;;10.90;;
23745;SDS011;12053;48.878;9.632;2024-03-22T03:59:08;11.10;;;8.57;;
23745;SDS011;12053;48.878;9.632;2024-03-22T04:01:34;13.70;;;10.98;;
23745;SDS011;12053;48.878;9.632;2024-03-22T04:04:01;22.10;;;12.55;;
23745;SDS011;12053;48.878;9.632;2024-03-22T04:06:27;14.18;;;9.77;;
23745;SDS011;12053;48.878;9.632;2024-03-22T04:08:54;28.42;;;14.05;;
23745;SDS011;12053;48.878;9.632;2024-03-22T04:11:20;60.72;;;19.77;;
23745;SDS011;12053;48.878;9.632;2024-03-22T04:13:46;34.13;;;14.07;;
23745;SDS011;12053;48.878;9.632;2024-03-22T04:16:13;32.28;;;14.63;;
23745;SDS011;12053;48.878;9.632;2024-03-22T04:18:39;21.23;;;11.90;;
23745;SDS011;12053;48.878;9.632;2024-03-22T04:21:05;17.40;;;12.50;;
23745;SDS011;12053;48.878;9.632;2024-03-22T04:23:32;22.70;;;12.73;;
23745;SDS011;12053;48.878;9.632;2024-03-22T04:25:59;19.10;;;12.30;;
23745;SDS011;12053;48.878;9.632;2024-03-22T04:28:26;18.65;;;12.23;;
23745;SDS011;12053;48.878;9.632;2024-03-22T04:31:05;16.25;;;11.02;;
23745;SDS011;12053;48.878;9.632;2024-03-22T04:33:34;18.55;;;13.00;;
23745;SDS011;12053;48.878;9.632;2024-03-22T04:36:00;22.35;;;12.25;;
23745;SDS011;12053;48.878;9.632;2024-03-22T04:38:27;21.65;;;13.70;;
23745;SDS011;12053;48.878;9.632;2024-03-22T04:40:54;20.77;;;14.25;;
23745;SDS011;12053;48.878;9.632;2024-03-22T04:43:22;27.88;;;17.05;;
23745;SDS011;12053;48.878;9.632;2024-03-22T04:45:49;30.13;;;18.05;;
23745;SDS011;12053;48.878;9.632;2024-03-22T04:48:20;27.60;;;18.92;;
23745;SDS011;12053;48.878;9.632;2024-03-22T04:50:47;29.70;;;17.95;;
23745;SDS011;12053;48.878;9.632;2024-03-22T04:53:15;28.45;;;18.52;;
23745;SDS011;12053;48.878;9.632;2024-03-22T04:55:42;26.63;;;17.85;;
23745;SDS011;12053;48.878;9.632;2024-03-22T05:00:42;27.70;;;17.65;;
23745;SDS011;12053;48.878;9.632;2024-03-22T05:03:09;22.88;;;16.65;;
23745;SDS011;12053;48.878;9.632;2024-03-22T05:05:36;24.05;;;16.73;;
23745;SDS011;12053;48.878;9.632;2024-03-22T05:08:02;25.83;;;16.65;;
23745;SDS011;12053;48.878;9.632;2024-03-22T05:10:29;24.30;;;15.93;;
23745;SDS011;12053;48.878;9.632;2024-03-22T05:12:56;20.67;;;15.35;;
23745;SDS011;12053;48.878;9.632;2024-03-22T05:15:22;23.52;;;15.60;;
23745;SDS011;12053;48.878;9.632;2024-03-22T05:17:50;22.88;;;15.40;;
23745;SDS011;12053;48.878;9.632;2024-03-22T05:20:17;24.17;;;16.75;;
23745;SDS011;12053;48.878;9.632;2024-03-22T05:22:43;28.67;;;17.50;;
23745;SDS011;12053;48.878;9.632;2024-03-22T05:25:09;26.63;;;16.65;;
23745;SDS011;12053;48.878;9.632;2024-03-22T05:27:36;104.47;;;37.53;;
23745;SDS011;12053;48.878;9.632;2024-03-22T05:30:02;97.63;;;35.78;;
23745;SDS011;12053;48.878;9.632;2024-03-22T05:32:29;76.68;;;30.95;;
23745;SDS011;12053;48.878;9.632;2024-03-22T05:34:55;37.28;;;20.10;;
23745;SDS011;12053;48.878;9.632;2024-03-22T05:37:22;37.45;;;18.77;;
23745;SDS011;12053;48.878;9.632;2024-03-22T05:39:48;31.75;;;17.70;;
23745;SDS011;12053;48.878;9.632;2024-03-22T05:42:15;35.72;;;19.08;;
23745;SDS011;12053;48.878;9.632;2024-03-22T05:44:41;26.25;;;16.95;;
23745;SDS011;12053;48.878;9.632;2024-03-22T05:47:07;25.40;;;16.95;;
23745;SDS011;12053;48.878;9.632;2024-03-22T05:49:33;23.98;;;14.18;;
23745;SDS011;12053;48.878;9.632;2024-03-22T05:51:59;24.20;;;15.43;;
23745;SDS011;12053;48.878;9.632;2024-03-22T05:54:26;21.25;;;13.77;;
23745;SDS011;12053;48.878;9.632;2024-03-22T05:56:52;23.45;;;14.10;;
23745;SDS011;12053;48.878;9.632;2024-03-22T05:59:18;19.40;;;12.95;;
23745;SDS011;12053;48.878;9.632;2024-03-22T06:01:44;19.38;;;12.85;;
23745;SDS011;12053;48.878;9.632;2024-03-22T06:04:11;16.60;;;13.50;;
23745;SDS011;12053;48.878;9.632;2024-03-22T06:06:37;19.83;;;13.00;;
23745;SDS011;12053;48.878;9.632;2024-03-22T06:09:03;19.92;;;13.20;;
23745;SDS011;12053;48.878;9.632;2024-03-22T06:11:33;18.30;;;12.55;;
23745;SDS011;12053;48.878;9.632;2024-03-22T06:14:00;17.08;;;12.80;;
23745;SDS011;12053;48.878;9.632;2024-03-22T06:16:26;19.08;;;12.90;;
23745;SDS011;12053;48.878;9.632;2024-03-22T06:18:52;18.00;;;12.45;;
23745;SDS011;12053;48.878;9.632;2024-03-22T06:21:18;18.88;;;12.07;;
23745;SDS011;12053;48.878;9.632;2024-03-22T06:23:50;19.10;;;12.25;;
23745;SDS011;12053;48.878;9.632;2024-03-22T06:26:17;16.25;;;11.82;;
23745;SDS011;12053;48.878;9.632;2024-03-22T06:28:43;15.75;;;12.45;;
23745;SDS011;12053;48.878;9.632;2024-03-22T06:31:10;20.77;;;12.10;;
23745;SDS011;12053;48.878;9.632;2024-03-22T06:33:36;15.80;;;11.93;;
23745;SDS011;12053;48.878;9.632;2024-03-22T06:36:02;17.40;;;11.18;;
23745;SDS011;12053;48.878;9.632;2024-03-22T06:38:29;15.93;;;11.90;;
23745;SDS011;12053;48.878;9.632;2024-03-22T06:40:55;17.88;;;12.45;;
23745;SDS011;12053;48.878;9.632;2024-03-22T06:43:22;20.73;;;12.45;;
23745;SDS011;12053;48.878;9.632;2024-03-22T06:45:49;14.90;;;12.35;;
23745;SDS011;12053;48.878;9.632;2024-03-22T06:48:15;21.90;;;12.80;;
23745;SDS011;12053;48.878;9.632;2024-03-22T06:50:41;24.55;;;13.77;;
23745;SDS011;12053;48.878;9.632;2024-03-22T06:53:07;25.40;;;13.18;;
23745;SDS011;12053;48.878;9.632;2024-03-22T06:55:35;22.27;;;12.75;;
23745;SDS011;12053;48.878;9.632;2024-03-22T06:58:02;19.05;;;11.80;;
23745;SDS011;12053;48.878;9.632;2024-03-22T07:00:28;16.40;;;12.30;;
23745;SDS011;12053;48.878;9.632;2024-03-22T07:02:55;18.92;;;11.88;;
23745;SDS011;12053;48.878;9.632;2024-03-22T07:05:22;16.70;;;9.73;;
23745;SDS011;12053;48.878;9.632;2024-03-22T07:07:48;16.83;;;10.50;;
23745;SDS011;12053;48.878;9.632;2024-03-22T07:10:21;15.30;;;9.30;;
23745;SDS011;12053;48.878;9.632;2024-03-22T07:12:48;15.18;;;9.85;;
23745;SDS011;12053;48.878;9.632;2024-03-22T07:15:14;16.10;;;9.98;;
23745;SDS011;12053;48.878;9.632;2024-03-22T07:17:41;17.70;;;9.73;;
23745;SDS011;12053;48.878;9.632;2024-03-22T07:20:07;13.40;;;10.02;;
23745;SDS011;12053;48.878;9.632;2024-03-22T07:22:33;14.20;;;10.35;;
23745;SDS011;12053;48.878;9.632;2024-03-22T07:24:59;14.82;;;10.43;;
23745;SDS011;12053;48.878;9.632;2024-03-22T07:27:26;13.10;;;9.30;;
23745;SDS011;12053;48.878;9.632;2024-03-22T07:29:54;15.27;;;9.32;;
23745;SDS011;12053;48.878;9.632;2024-03-22T07:32:21;10.30;;;8.77;;
23745;SDS011;12053;48.878;9.632;2024-03-22T07:34:47;12.50;;;7.85;;
23745;SDS011;12053;48.878;9.632;2024-03-22T07:37:13;10.40;;;7.63;;
23745;SDS011;12053;48.878;9.632;2024-03-22T07:39:40;10.05;;;8.13;;
23745;SDS011;12053;48.878;9.632;2024-03-22T07:42:06;10.93;;;8.40;;
23745;SDS011;12053;48.878;9.632;2024-03-22T07:44:32;13.68;;;8.23;;
23745;SDS011;12053;48.878;9.632;2024-03-22T07:46:58;15.52;;;8.43;;
23745;SDS011;12053;48.878;9.632;2024-03-22T07:49:24;11.13;;;8.15;;
23745;SDS011;12053;48.878;9.632;2024-03-22T07:51:51;11.60;;;8.80;;
23745;SDS011;12053;48.878;9.632;2024-03-22T07:54:21;13.88;;;7.70;;
23745;SDS011;12053;48.878;9.632;2024-03-22T07:56:47;11.20;;;7.50;;
23745;SDS011;12053;48.878;9.632;2024-03-22T07:59:14;14.55;;;7.68;;
23745;SDS011;12053;48.878;9.632;2024-03-22T08:01:41;11.02;;;8.25;;
23745;SDS011;12053;48.878;9.632;2024-03-22T08:04:07;12.20;;;8.07;;
23745;SDS011;12053;48.878;9.632;2024-03-22T08:06:33;12.13;;;8.60;;
23745;SDS011;12053;48.878;9.632;2024-03-22T08:08:59;11.98;;;7.95;;
23745;SDS011;12053;48.878;9.632;2024-03-22T08:11:26;10.95;;;7.10;;
23745;SDS011;12053;48.878;9.632;2024-03-22T08:13:53;12.73;;;7.57;;
23745;SDS011;12053;48.878;9.632;2024-03-22T08:16:26;10.52;;;7.40;;
23745;SDS011;12053;48.878;9.632;2024-03-22T08:18:53;10.32;;;7.15;;
23745;SDS011;12053;48.878;9.632;2024-03-22T08:21:19;9.57;;;7.40;;
23745;SDS011;12053;48.878;9.632;2024-03-22T08:23:45;10.60;;;7.97;;
23745;SDS011;12053;48.878;9.632;2024-03-22T08:26:11;10.88;;;7.70;;
23745;SDS011;12053;48.878;9.632;2024-03-22T08:28:38;9.70;;;5.70;;
23745;SDS011;12053;48.878;9.632;2024-03-22T08:31:04;9.05;;;6.55;;
23745;SDS011;12053;48.878;9.632;2024-03-22T08:33:31;7.25;;;5.32;;
23745;SDS011;12053;48.878;9.632;2024-03-22T08:35:57;9.30;;;5.97;;
23745;SDS011;12053;48.878;9.632;2024-03-22T08:38:23;9.85;;;6.05;;
23745;SDS011;12053;48.878;9.632;2024-03-22T08:40:50;7.82;;;5.82;;
23745;SDS011;12053;48.878;9.632;2024-03-22T08:43:16;14.40;;;9.25;;
23745;SDS011;12053;48.878;9.632;2024-03-22T08:45:42;19.30;;;12.73;;
23745;SDS011;12053;48.878;9.632;2024-03-22T08:48:09;13.20;;;8.50;;
23745;SDS011;12053;48.878;9.632;2024-03-22T08:50:35;7.90;;;5.80;;
23745;SDS011;12053;48.878;9.632;2024-03-22T08:53:02;10.07;;;5.93;;
23745;SDS011;12053;48.878;9.632;2024-03-22T08:55:29;12.38;;;5.95;;
23745;SDS011;12053;48.878;9.632;2024-03-22T08:57:56;10.15;;;5.40;;
23745;SDS011;12053;48.878;9.632;2024-03-22T09:00:23;11.57;;;6.72;;
23745;SDS011;12053;48.878;9.632;2024-03-22T09:02:49;10.15;;;6.10;;
23745;SDS011;12053;48.878;9.632;2024-03-22T09:05:16;8.13;;;5.65;;
23745;SDS011;12053;48.878;9.632;2024-03-22T09:07:44;11.75;;;6.57;;
23745;SDS011;12053;48.878;9.632;2024-03-22T09:10:11;8.25;;;4.55;;
23745;SDS011;12053;48.878;9.632;2024-03-22T09:12:37;9.10;;;5.10;;
23745;SDS011;12053;48.878;9.632;2024-03-22T09:15:05;4.88;;;4.18;;
23745;SDS011;12053;48.878;9.632;2024-03-22T09:17:33;7.47;;;4.90;;
23745;SDS011;12053;48.878;9.632;2024-03-22T09:19:59;7.53;;;4.97;;
23745;SDS011;12053;48.878;9.632;2024-03-22T09:22:27;8.13;;;5.30;;
23745;SDS011;12053;48.878;9.632;2024-03-22T09:24:54;11.20;;;5.70;;
23745;SDS011;12053;48.878;9.632;2024-03-22T09:27:24;7.13;;;4.93;;
23745;SDS011;12053;48.878;9.632;2024-03-22T09:29:51;6.35;;;5.13;;
23745;SDS011;12053;48.878;9.632;2024-03-22T09:32:18;12.80;;;6.18;;
23745;SDS011;12053;48.878;9.632;2024-03-22T09:34:44;11.50;;;6.68;;
23745;SDS011;12053;48.878;9.632;2024-03-22T09:37:11;10.60;;;5.75;;
23745;SDS011;12053;48.878;9.632;2024-03-22T09:39:39;8.23;;;6.07;;
23745;SDS011;12053;48.878;9.632;2024-03-22T09:42:05;10.38;;;5.70;;
23745;SDS011;12053;48.878;9.632;2024-03-22T09:44:32;10.60;;;5.97;;
23745;SDS011;12053;48.878;9.632;2024-03-22T09:46:59;9.18;;;6.63;;
23745;SDS011;12053;48.878;9.632;2024-03-22T09:49:26;9.73;;;6.30;;
23745;SDS011;12053;48.878;9.632;2024-03-22T09:51:53;8.07;;;6.00;;
23745;SDS011;12053;48.878;9.632;2024-03-22T09:54:22;8.82;;;5.72;;
23745;SDS011;12053;48.878;9.632;2024-03-22T09:56:50;12.77;;;6.10;;
23745;SDS011;12053;48.878;9.632;2024-03-22T09:59:17;9.10;;;6.13;;
23745;SDS011;12053;48.878;9.632;2024-03-22T10:01:44;9.80;;;5.47;;
23745;SDS011;12053;48.878;9.632;2024-03-22T10:04:10;8.40;;;5.05;;
23745;SDS011;12053;48.878;9.632;2024-03-22T10:06:37;8.40;;;5.85;;
23745;SDS011;12053;48.878;9.632;2024-03-22T10:09:04;6.13;;;5.20;;
23745;SDS011;12053;48.878;9.632;2024-03-22T10:11:31;7.25;;;5.90;;
23745;SDS011;12053;48.878;9.632;2024-03-22T10:13:59;9.23;;;5.35;;
23745;SDS011;12053;48.878;9.632;2024-03-22T10:16:26;8.00;;;5.50;;
23745;SDS011;12053;48.878;9.632;2024-03-22T10:18:52;8.30;;;5.43;;
23745;SDS011;12053;48.878;9.632;2024-03-22T10:21:18;8.32;;;5.35;;
23745;SDS011;12053;48.878;9.632;2024-03-22T10:23:45;7.70;;;4.97;;
23745;SDS011;12053;48.878;9.632;2024-03-22T10:26:13;7.45;;;5.35;;
23745;SDS011;12053;48.878;9.632;2024-03-22T10:28:46;7.88;;;4.95;;
23745;SDS011;12053;48.878;9.632;2024-03-22T10:31:13;7.70;;;4.50;;
23745;SDS011;12053;48.878;9.632;2024-03-22T10:33:40;8.18;;;4.72;;
23745;SDS011;12053;48.878;9.632;2024-03-22T10:36:07;9.10;;;5.32;;
23745;SDS011;12053;48.878;9.632;2024-03-22T10:38:34;8.90;;;5.18;;
23745;SDS011;12053;48.878;9.632;2024-03-22T10:41:02;6.45;;;4.82;;
23745;SDS011;12053;48.878;9.632;2024-03-22T10:43:29;10.60;;;5.38;;
23745;SDS011;12053;48.878;9.632;2024-03-22T10:45:56;6.88;;;4.68;;
23745;SDS011;12053;48.878;9.632;2024-03-22T10:48:27;7.90;;;5.28;;
23745;SDS011;12053;48.878;9.632;2024-03-22T10:50:54;7.60;;;4.68;;
23745;SDS011;12053;48.878;9.632;2024-03-22T10:53:23;10.25;;;4.05;;
23745;SDS011;12053;48.878;9.632;2024-03-22T10:55:50;5.68;;;3.17;;
23745;SDS011;12053;48.878;9.632;2024-03-22T10:58:18;5.32;;;3.67;;
23745;SDS011;12053;48.878;9.632;2024-03-22T11:00:47;5.75;;;4.25;;
23745;SDS011;12053;48.878;9.632;2024-03-22T11:03:13;7.70;;;4.50;;
23745;SDS011;12053;48.878;9.632;2024-03-22T11:05:46;6.30;;;4.20;;
23745;SDS011;12053;48.878;9.632;2024-03-22T11:08:13;7.78;;;4.93;;
23745;SDS011;12053;48.878;9.632;2024-03-22T11:10:39;6.30;;;3.67;;
23745;SDS011;12053;48.878;9.632;2024-03-22T11:13:06;8.55;;;4.65;;
23745;SDS011;12053;48.878;9.632;2024-03-22T11:15:34;5.32;;;3.45;;
23745;SDS011;12053;48.878;9.632;2024-03-22T11:18:00;3.45;;;3.10;;
23745;SDS011;12053;48.878;9.632;2024-03-22T11:20:27;4.20;;;3.50;;
23745;SDS011;12053;48.878;9.632;2024-03-22T11:22:53;4.95;;;3.55;;
23745;SDS011;12053;48.878;9.632;2024-03-22T11:25:20;4.80;;;3.40;;
23745;SDS011;12053;48.878;9.632;2024-03-22T11:27:46;4.13;;;2.85;;
23745;SDS011;12053;48.878;9.632;2024-03-22T11:30:12;6.40;;;3.90;;
23745;SDS011;12053;48.878;9.632;2024-03-22T11:32:39;3.97;;;2.63;;
23745;SDS011;12053;48.878;9.632;2024-03-22T11:35:12;4.40;;;2.17;;
23745;SDS011;12053;48.878;9.632;2024-03-22T11:37:39;5.40;;;2.42;;
23745;SDS011;12053;48.878;9.632;2024-03-22T11:40:08;3.17;;;2.50;;
23745;SDS011;12053;48.878;9.632;2024-03-22T11:42:57;3.65;;;2.72;;
23745;SDS011;12053;48.878;9.632;2024-03-22T11:45:22;4.30;;;2.80;;
23745;SDS011;12053;48.878;9.632;2024-03-22T11:47:49;3.10;;;2.40;;
23745;SDS011;12053;48.878;9.632;2024-03-22T11:50:15;3.05;;;2.40;;
23745;SDS011;12053;48.878;9.632;2024-03-22T11:52:42;4.18;;;2.63;;
23745;SDS011;12053;48.878;9.632;2024-03-22T11:55:10;6.82;;;2.90;;
23745;SDS011;12053;48.878;9.632;2024-03-22T11:57:36;3.35;;;2.60;;
23745;SDS011;12053;48.878;9.632;2024-03-22T12:00:03;5.13;;;3.22;;
23745;SDS011;12053;48.878;9.632;2024-03-22T12:02:35;5.13;;;2.90;;
23745;SDS011;12053;48.878;9.632;2024-03-22T12:05:01;6.65;;;3.83;;
23745;SDS011;12053;48.878;9.632;2024-03-22T12:07:28;7.25;;;4.10;;
23745;SDS011;12053;48.878;9.632;2024-03-22T12:09:54;5.78;;;3.70;;
23745;SDS011;12053;48.878;9.632;2024-03-22T12:12:21;5.68;;;3.53;;
23745;SDS011;12053;48.878;9.632;2024-03-22T12:14:48;4.97;;;3.75;;
23745;SDS011;12053;48.878;9.632;2024-03-22T12:17:16;6.28;;;4.00;;
23745;SDS011;12053;48.878;9.632;2024-03-22T12:19:42;7.28;;;4.78;;
23745;SDS011;12053;48.878;9.632;2024-03-22T12:22:09;9.10;;;4.85;;
23745;SDS011;12053;48.878;9.632;2024-03-22T12:24:35;6.35;;;4.93;;
23745;SDS011;12053;48.878;9.632;2024-03-22T12:27:02;7.03;;;4.97;;
23745;SDS011;12053;48.878;9.632;2024-03-22T12:29:28;7.05;;;4.35;;
23745;SDS011;12053;48.878;9.632;2024-03-22T12:31:54;10.70;;;4.65;;
23745;SDS011;12053;48.878;9.632;2024-03-22T12:34:21;6.15;;;4.53;;
23745;SDS011;12053;48.878;9.632;2024-03-22T12:36:47;6.50;;;4.60;;
23745;SDS011;12053;48.878;9.632;2024-03-22T12:39:14;6.25;;;4.32;;
23745;SDS011;12053;48.878;9.632;2024-03-22T12:41:42;8.00;;;5.07;;
23745;SDS011;12053;48.878;9.632;2024-03-22T12:44:08;7.88;;;4.72;;
23745;SDS011;12053;48.878;9.632;2024-03-22T12:46:34;6.50;;;4.75;;
23745;SDS011;12053;48.878;9.632;2024-03-22T12:49:00;13.40;;;4.50;;
23745;SDS011;12053;48.878;9.632;2024-03-22T12:51:27;8.32;;;4.78;;
23745;SDS011;12053;48.878;9.632;2024-03-22T12:53:53;6.82;;;4.68;;
23745;SDS011;12053;48.878;9.632;2024-03-22T12:56:20;7.63;;;4.47;;
23745;SDS011;12053;48.878;9.632;2024-03-22T12:58:47;6.85;;;5.18;;
23745;SDS011;12053;48.878;9.632;2024-03-22T13:01:13;11.93;;;5.88;;
23745;SDS011;12053;48.878;9.632;2024-03-22T13:03:40;8.93;;;5.50;;
23745;SDS011;12053;48.878;9.632;2024-03-22T13:06:06;8.32;;;5.05;;
23745;SDS011;12053;48.878;9.632;2024-03-22T13:08:32;10.77;;;6.30;;
23745;SDS011;12053;48.878;9.632;2024-03-22T13:10:59;8.93;;;5.88;;
23745;SDS011;12053;48.878;9.632;2024-03-22T13:13:25;9.02;;;5.43;;
23745;SDS011;12053;48.878;9.632;2024-03-22T13:15:51;7.28;;;5.30;;
23745;SDS011;12053;48.878;9.632;2024-03-22T13:18:17;6.78;;;5.30;;
23745;SDS011;12053;48.878;9.632;2024-03-22T13:20:46;8.48;;;5.28;;
23745;SDS011;12053;48.878;9.632;2024-03-22T13:23:12;7.72;;;5.70;;
23745;SDS011;12053;48.878;9.632;2024-03-22T13:25:39;9.05;;;5.63;;
23745;SDS011;12053;48.878;9.632;2024-03-22T13:28:05;6.93;;;5.90;;
23745;SDS011;12053;48.878;9.632;2024-03-22T13:30:31;9.95;;;5.55;;
23745;SDS011;12053;48.878;9.632;2024-03-22T13:33:00;7.45;;;5.25;;
23745;SDS011;12053;48.878;9.632;2024-03-22T13:35:26;8.07;;;5.45;;
23745;SDS011;12053;48.878;9.632;2024-03-22T13:37:52;11.70;;;6.18;;
23745;SDS011;12053;48.878;9.632;2024-03-22T13:40:19;11.70;;;5.60;;
23745;SDS011;12053;48.878;9.632;2024-03-22T13:42:45;8.32;;;5.78;;
23745;SDS011;12053;48.878;9.632;2024-03-22T13:45:11;12.23;;;6.05;;
23745;SDS011;12053;48.878;9.632;2024-03-22T13:47:38;6.72;;;5.05;;
23745;SDS011;12053;48.878;9.632;2024-03-22T13:50:08;8.88;;;5.25;;
23745;SDS011;12053;48.878;9.632;2024-03-22T13:52:35;7.30;;;5.45;;
23745;SDS011;12053;48.878;9.632;2024-03-22T13:55:04;7.25;;;4.70;;
23745;SDS011;12053;48.878;9.632;2024-03-22T13:57:30;6.88;;;5.05;;
23745;SDS011;12053;48.878;9.632;2024-03-22T13:59:57;8.40;;;5.15;;
23745;SDS011;12053;48.878;9.632;2024-03-22T14:02:24;8.05;;;5.57;;
23745;SDS011;12053;48.878;9.632;2024-03-22T14:04:50;6.57;;;4.93;;
23745;SDS011;12053;48.878;9.632;2024-03-22T14:07:17;7.82;;;5.40;;
23745;SDS011;12053;48.878;9.632;2024-03-22T14:09:44;6.30;;;5.13;;
23745;SDS011;12053;48.878;9.632;2024-03-22T14:12:10;7.68;;;5.18;;
23745;SDS011;12053;48.878;9.632;2024-03-22T14:14:38;8.65;;;5.07;;
23745;SDS011;12053;48.878;9.632;2024-03-22T14:17:05;7.20;;;5.45;;
23745;SDS011;12053;48.878;9.632;2024-03-22T14:19:31;9.55;;;5.78;;
23745;SDS011;12053;48.878;9.632;2024-03-22T14:21:57;6.68;;;4.32;;
23745;SDS011;12053;48.878;9.632;2024-03-22T14:24:24;7.82;;;4.50;;
23745;SDS011;12053;48.878;9.632;2024-03-22T14:26:50;6.80;;;4.70;;
23745;SDS011;12053;48.878;9.632;2024-03-22T14:29:17;6.07;;;3.85;;
23745;SDS011;12053;48.878;9.632;2024-03-22T14:31:44;7.35;;;4.57;;
23745;SDS011;12053;48.878;9.632;2024-03-22T14:34:11;6.53;;;4.57;;
23745;SDS011;12053;48.878;9.632;2024-03-22T14:36:38;8.98;;;4.78;;
23745;SDS011;12053;48.878;9.632;2024-03-22T14:39:04;8.57;;;4.45;;